Time;durP1;ratioP1;P1;durP2;ratioP2;P2;SDS_P1;SDS_P2;PMS_P1;PMS_P2;Temp;Humidity;BMP_temperature;BMP_pressure;BME280_temperature;BME280_humidity;BME280_pressure;Samples;Min_cycle;Max_cycle;Signal;HPM_P1;HPM_P2
2022/04/04 00:00:41;;;;;;;20.35;7.10;;;3.70;99.90;;;;;;5073128;28;20049;-86
2022/04/04 00:03:07;;;;;;;18.63;7.32;;;3.80;99.90;;;;;;5055356;28;20442;-86
2022/04/04 00:05:34;;;;;;;17.83;7.78;;;3.80;99.90;;;;;;5073463;28;20029;-86
2022/04/04 00:07:59;;;;;;;18.25;6.90;;;3.80;99.90;;;;;;5055657;28;20052;-86
2022/04/04 00:10:25;;;;;;;16.67;6.97;;;3.80;99.90;;;;;;5055274;28;20045;-86
2022/04/04 00:12:51;;;;;;;14.90;7.18;;;3.80;99.90;;;;;;5055394;28;20185;-86
2022/04/04 00:15:16;;;;;;;16.90;7.20;;;3.90;99.90;;;;;;5055610;28;20044;-89
2022/04/04 00:17:42;;;;;;;23.95;7.47;;;3.90;99.90;;;;;;5073217;28;20047;-86
2022/04/04 00:20:10;;;;;;;16.52;6.55;;;3.90;99.90;;;;;;5055721;28;20040;-86
2022/04/04 00:22:36;;;;;;;18.90;6.93;;;3.90;99.90;;;;;;5055280;28;20071;-85
2022/04/04 00:25:02;;;;;;;22.77;6.88;;;4.00;99.90;;;;;;5073258;28;20059;-85
2022/04/04 00:27:28;;;;;;;17.88;7.57;;;4.00;99.90;;;;;;5055617;28;20542;-90
2022/04/04 00:29:53;;;;;;;18.13;6.95;;;4.00;99.90;;;;;;5055353;28;20140;-91
2022/04/04 00:32:19;;;;;;;17.48;6.63;;;4.00;99.90;;;;;;5055743;28;20135;-92
2022/04/04 00:34:45;;;;;;;19.15;7.53;;;4.00;99.90;;;;;;5055622;28;20044;-92
2022/04/04 00:37:10;;;;;;;20.13;8.52;;;4.00;99.90;;;;;;5076289;28;20083;-92
2022/04/04 00:39:36;;;;;;;18.95;7.15;;;4.10;99.90;;;;;;5059452;28;20040;-91
2022/04/04 00:42:02;;;;;;;27.30;8.25;;;4.10;99.90;;;;;;5077133;28;20381;-91
2022/04/04 00:44:28;;;;;;;22.50;7.15;;;4.10;99.90;;;;;;5059416;28;20087;-89
2022/04/04 00:46:53;;;;;;;24.83;8.63;;;4.10;99.90;;;;;;5059294;28;20040;-91
2022/04/04 00:49:19;;;;;;;20.10;6.82;;;4.20;99.90;;;;;;5058976;28;20127;-91
2022/04/04 00:51:45;;;;;;;19.92;7.20;;;4.20;99.90;;;;;;5076960;28;20044;-92
2022/04/04 00:54:11;;;;;;;24.67;8.98;;;4.20;99.90;;;;;;5058858;28;20044;-92
2022/04/04 00:56:38;;;;;;;18.50;7.55;;;4.20;99.90;;;;;;5076910;28;20044;-90
2022/04/04 00:59:05;;;;;;;24.33;9.65;;;4.20;99.90;;;;;;5058544;28;20036;-90
2022/04/04 01:01:32;;;;;;;25.40;8.68;;;4.20;99.90;;;;;;5058639;28;20048;-87
2022/04/04 01:03:58;;;;;;;25.63;9.05;;;4.30;99.90;;;;;;5058349;28;20447;-87
2022/04/04 01:06:23;;;;;;;28.23;9.88;;;4.30;99.90;;;;;;5058678;28;20659;-87
2022/04/04 01:08:49;;;;;;;26.33;9.85;;;4.30;99.90;;;;;;5058584;28;20044;-86
2022/04/04 01:11:15;;;;;;;27.88;10.40;;;4.30;99.90;;;;;;5058366;28;20047;-86
2022/04/04 01:13:46;;;;;;;27.00;11.68;;;4.40;99.90;;;;;;5058133;28;20476;-86
2022/04/04 01:16:12;;;;;;;25.52;10.70;;;4.40;99.90;;;;;;5058366;28;20527;-86
2022/04/04 01:18:37;;;;;;;37.22;12.05;;;4.40;99.90;;;;;;5076277;28;20045;-90
2022/04/04 01:21:03;;;;;;;28.55;11.25;;;4.40;99.90;;;;;;5058496;28;20392;-90
2022/04/04 01:23:40;;;;;;;44.35;13.00;;;4.40;99.90;;;;;;5058341;28;20049;-90
2022/04/04 01:26:08;;;;;;;43.72;12.23;;;4.50;99.90;;;;;;5058514;28;20098;-89
2022/04/04 01:28:34;;;;;;;36.83;15.35;;;4.50;99.90;;;;;;5058173;28;20079;-89
2022/04/04 01:30:59;;;;;;;37.30;14.15;;;4.50;99.90;;;;;;5058346;28;20076;-90
2022/04/04 01:33:25;;;;;;;43.05;15.35;;;4.60;99.90;;;;;;5058226;28;20040;-90
2022/04/04 01:35:52;;;;;;;46.53;17.65;;;4.60;99.90;;;;;;5058360;28;20090;-89
2022/04/04 01:38:17;;;;;;;43.92;16.92;;;4.60;99.90;;;;;;5057972;28;20055;-90
2022/04/04 01:40:43;;;;;;;48.05;18.20;;;4.70;99.90;;;;;;5057928;28;20045;-90
2022/04/04 01:43:09;;;;;;;45.53;16.63;;;4.70;99.90;;;;;;5058183;28;20040;-91
2022/04/04 01:48:19;;;;;;;49.80;20.05;;;4.80;99.90;;;;;;5075543;28;20055;-88
2022/04/04 01:50:44;;;;;;;44.35;17.80;;;4.80;99.90;;;;;;5057564;28;20045;-88
2022/04/04 01:53:25;;;;;;;46.90;18.50;;;4.80;99.90;;;;;;5075846;28;20033;-92
2022/04/04 01:55:51;;;;;;;48.80;19.58;;;4.90;99.90;;;;;;5076029;28;20119;-93
2022/04/04 01:58:17;;;;;;;49.28;19.40;;;4.90;99.90;;;;;;5075872;28;20037;-92
2022/04/04 02:00:43;;;;;;;51.78;19.98;;;4.90;99.90;;;;;;5057888;28;20511;-90
2022/04/04 02:03:09;;;;;;;46.47;19.55;;;4.90;99.90;;;;;;5057815;28;20480;-91
2022/04/04 02:05:35;;;;;;;43.20;18.13;;;5.00;99.90;;;;;;5075615;28;20147;-91
2022/04/04 02:08:01;;;;;;;53.20;21.33;;;5.00;99.90;;;;;;5058439;28;20044;-90
2022/04/04 02:10:26;;;;;;;54.53;20.20;;;5.00;99.90;;;;;;5057617;28;20056;-91
2022/04/04 02:12:52;;;;;;;49.45;20.85;;;5.00;99.90;;;;;;5057769;28;20062;-91
2022/04/04 02:15:18;;;;;;;53.95;18.95;;;5.10;99.90;;;;;;5057671;28;20134;-90
2022/04/04 02:17:44;;;;;;;52.42;21.13;;;5.10;99.90;;;;;;5057680;28;20079;-90
2022/04/04 02:20:10;;;;;;;54.88;20.67;;;5.10;99.90;;;;;;5057824;28;20400;-91
2022/04/04 02:22:36;;;;;;;43.58;18.83;;;5.10;99.90;;;;;;5057427;28;20511;-93
2022/04/04 02:25:03;;;;;;;46.88;20.55;;;5.10;99.90;;;;;;5057521;28;20051;-93
2022/04/04 02:27:29;;;;;;;40.70;18.33;;;5.20;99.90;;;;;;5057949;28;20094;-94
2022/04/04 02:29:57;;;;;;;44.60;20.27;;;5.20;99.90;;;;;;5057644;28;20491;-92
2022/04/04 02:32:22;;;;;;;43.17;19.27;;;5.20;99.90;;;;;;5056878;28;20438;-89
2022/04/04 02:34:48;;;;;;;49.13;19.38;;;5.20;99.90;;;;;;5056622;28;20479;-89
2022/04/04 02:37:14;;;;;;;38.33;17.63;;;5.30;99.90;;;;;;5074675;28;20052;-88
2022/04/04 02:39:40;;;;;;;41.95;19.05;;;5.30;99.90;;;;;;5056904;28;20042;-88
2022/04/04 02:42:06;;;;;;;35.10;16.08;;;5.30;99.90;;;;;;5056655;28;20098;-88
2022/04/04 02:44:32;;;;;;;40.40;18.20;;;5.30;99.90;;;;;;5056985;28;20479;-87
2022/04/04 02:46:58;;;;;;;40.65;17.90;;;5.30;99.90;;;;;;5074456;28;20044;-88
2022/04/04 02:49:25;;;;;;;33.83;15.50;;;5.40;99.90;;;;;;5074481;28;20379;-87
2022/04/04 02:51:52;;;;;;;39.28;17.67;;;5.30;99.90;;;;;;5056553;28;20053;-87
2022/04/04 02:54:17;;;;;;;45.47;19.85;;;5.30;99.90;;;;;;5056257;28;20123;-87
2022/04/04 02:56:43;;;;;;;36.58;15.65;;;5.40;99.90;;;;;;5074405;28;20123;-89
2022/04/04 02:59:09;;;;;;;35.53;16.90;;;5.40;99.90;;;;;;5074079;28;20391;-91
2022/04/04 03:01:35;;;;;;;34.22;17.65;;;5.40;99.90;;;;;;5056930;28;20052;-92
2022/04/04 03:04:02;;;;;;;31.85;14.98;;;5.40;99.90;;;;;;5056427;28;20036;-92
2022/04/04 03:06:28;;;;;;;37.10;18.05;;;5.40;99.90;;;;;;5074560;28;20059;-91
2022/04/04 03:08:55;;;;;;;35.35;18.15;;;5.30;99.90;;;;;;5056470;28;20040;-88
2022/04/04 03:11:21;;;;;;;38.25;18.05;;;5.30;99.90;;;;;;5074020;28;20045;-82
2022/04/04 03:13:47;;;;;;;39.78;16.88;;;5.30;99.90;;;;;;5056033;28;20048;-82
2022/04/04 03:16:13;;;;;;;35.42;17.00;;;5.30;99.90;;;;;;5055968;28;20052;-82
2022/04/04 03:18:39;;;;;;;34.85;17.17;;;5.20;99.90;;;;;;5055919;28;20041;-89
2022/04/04 03:21:06;;;;;;;29.45;14.80;;;5.20;99.90;;;;;;5055873;28;20044;-84
2022/04/04 03:23:33;;;;;;;37.47;17.95;;;5.20;99.90;;;;;;5055801;28;20056;-84
2022/04/04 03:25:59;;;;;;;29.45;15.15;;;5.30;99.90;;;;;;5056074;28;20410;-84
2022/04/04 03:28:25;;;;;;;26.23;15.57;;;5.30;99.90;;;;;;5055786;28;20046;-84
2022/04/04 03:30:51;;;;;;;26.42;14.27;;;5.30;99.90;;;;;;5055736;28;20040;-85
2022/04/04 03:33:17;;;;;;;25.02;14.38;;;5.30;99.90;;;;;;5073777;28;20127;-86
2022/04/04 03:35:43;;;;;;;25.80;14.27;;;5.30;99.90;;;;;;5055895;28;20059;-85
2022/04/04 03:38:11;;;;;;;25.08;13.80;;;5.30;99.90;;;;;;5073904;28;20037;-86
2022/04/04 03:40:38;;;;;;;23.42;13.18;;;5.30;99.90;;;;;;5055896;28;20056;-86
2022/04/04 03:43:04;;;;;;;24.25;12.85;;;5.30;99.90;;;;;;5055913;28;20076;-85
2022/04/04 03:45:30;;;;;;;19.20;10.27;;;5.30;99.90;;;;;;5055850;28;20044;-85
2022/04/04 03:47:58;;;;;;;21.50;10.70;;;5.30;99.90;;;;;;5055444;28;20148;-85
2022/04/04 03:50:24;;;;;;;20.13;9.50;;;5.40;99.90;;;;;;5055505;28;20487;-85
2022/04/04 03:52:52;;;;;;;16.60;9.43;;;5.40;99.90;;;;;;5055525;28;20130;-85
2022/04/04 03:55:19;;;;;;;17.65;9.77;;;5.40;99.90;;;;;;5055478;28;20402;-86
2022/04/04 03:57:45;;;;;;;15.90;9.35;;;5.40;99.90;;;;;;5055480;28;20480;-87
2022/04/04 04:00:12;;;;;;;14.88;9.60;;;5.40;99.90;;;;;;5073409;28;20053;-87
2022/04/04 04:02:37;;;;;;;16.83;10.10;;;5.40;99.90;;;;;;5073527;28;20048;-88
2022/04/04 04:05:04;;;;;;;17.98;10.43;;;5.30;99.90;;;;;;5073167;28;20037;-88
2022/04/04 04:07:30;;;;;;;17.85;9.18;;;5.30;99.90;;;;;;5073389;28;20041;-88
2022/04/04 04:09:56;;;;;;;17.55;9.43;;;5.40;99.90;;;;;;5055390;28;20055;-88
2022/04/04 04:12:22;;;;;;;16.85;9.73;;;5.30;99.90;;;;;;5059092;28;20045;-88
2022/04/04 04:14:49;;;;;;;18.42;9.38;;;5.40;99.90;;;;;;5059628;28;20448;-88
2022/04/04 04:17:15;;;;;;;17.40;10.15;;;5.40;99.90;;;;;;5059320;28;20037;-86
2022/04/04 04:22:26;;;;;;;15.38;9.88;;;5.30;99.90;;;;;;5077328;28;20415;-88
2022/04/04 04:24:52;;;;;;;19.63;11.18;;;5.30;99.90;;;;;;5059411;28;20395;-87
2022/04/04 04:27:18;;;;;;;17.30;10.55;;;5.30;99.90;;;;;;5058930;28;20475;-87
2022/04/04 04:29:43;;;;;;;18.88;9.73;;;5.30;99.90;;;;;;5077082;28;20048;-87
2022/04/04 04:32:09;;;;;;;18.52;11.38;;;5.30;99.90;;;;;;5076982;28;20446;-87
2022/04/04 04:34:35;;;;;;;15.20;9.38;;;5.30;99.90;;;;;;5077028;28;20035;-87
2022/04/04 04:37:01;;;;;;;20.85;11.68;;;5.30;99.90;;;;;;5077006;28;20044;-88
2022/04/04 04:39:27;;;;;;;22.10;9.85;;;5.30;99.90;;;;;;5059283;28;20052;-86
2022/04/04 04:41:55;;;;;;;20.55;9.02;;;5.30;99.90;;;;;;5059673;28;20146;-93
2022/04/04 04:44:20;;;;;;;18.70;10.38;;;5.30;99.90;;;;;;5059926;28;20044;-88
2022/04/04 04:46:46;;;;;;;15.50;9.05;;;5.20;99.90;;;;;;5059061;28;20167;-86
2022/04/04 04:49:12;;;;;;;16.65;9.60;;;5.20;99.90;;;;;;5058855;28;20040;-86
2022/04/04 04:51:37;;;;;;;16.45;9.18;;;5.20;99.90;;;;;;5076725;28;20476;-89
2022/04/04 04:54:03;;;;;;;19.00;7.93;;;5.20;99.90;;;;;;5076714;28;20047;-88
2022/04/04 04:56:30;;;;;;;13.10;8.25;;;5.20;99.90;;;;;;5058727;28;20074;-89
2022/04/04 04:58:56;;;;;;;13.15;7.47;;;5.20;99.90;;;;;;5058286;28;20046;-87
2022/04/04 05:01:21;;;;;;;17.63;8.73;;;5.20;99.90;;;;;;5058534;28;20048;-88
2022/04/04 05:03:49;;;;;;;11.13;6.50;;;5.20;99.90;;;;;;5076507;28;20056;-88
2022/04/04 05:06:15;;;;;;;15.35;7.28;;;5.10;99.90;;;;;;5076325;28;20513;-89
2022/04/04 05:08:40;;;;;;;14.32;6.75;;;5.10;99.90;;;;;;5058839;28;20044;-85
2022/04/04 05:11:06;;;;;;;12.05;6.65;;;5.10;99.90;;;;;;5058158;28;20514;-86
2022/04/04 05:13:32;;;;;;;13.48;6.78;;;5.10;99.90;;;;;;5076038;28;20049;-86
2022/04/04 05:15:58;;;;;;;10.35;6.43;;;5.10;99.90;;;;;;5058020;28;20048;-86
2022/04/04 05:18:24;;;;;;;8.65;4.55;;;5.10;99.90;;;;;;5075782;28;20509;-85
2022/04/04 05:20:50;;;;;;;7.30;3.63;;;5.10;99.90;;;;;;5075732;28;20096;-86
2022/04/04 05:23:16;;;;;;;8.20;4.35;;;5.10;99.90;;;;;;5056530;28;20036;-85
2022/04/04 05:25:42;;;;;;;8.68;3.58;;;5.10;99.90;;;;;;5057237;28;20089;-88
2022/04/04 05:28:10;;;;;;;8.90;3.85;;;5.00;99.90;;;;;;5076059;28;20071;-89
2022/04/04 05:30:36;;;;;;;9.88;4.45;;;5.00;99.90;;;;;;5076419;28;20056;-92
2022/04/04 05:33:02;;;;;;;10.32;4.20;;;5.00;99.90;;;;;;5077260;28;20040;-91
2022/04/04 05:35:28;;;;;;;8.50;4.13;;;5.00;99.90;;;;;;5075748;28;20488;-89
2022/04/04 05:37:54;;;;;;;8.85;4.28;;;4.90;99.90;;;;;;5075423;28;20056;-89
2022/04/04 05:40:21;;;;;;;9.48;4.13;;;4.90;99.90;;;;;;5076026;28;20181;-89
2022/04/04 05:42:49;;;;;;;8.88;3.60;;;4.90;99.90;;;;;;5057786;28;20056;-89
2022/04/04 05:45:14;;;;;;;7.22;2.22;;;4.80;99.90;;;;;;5075521;28;20514;-90
2022/04/04 05:47:41;;;;;;;7.93;2.95;;;4.80;99.90;;;;;;5076493;28;20127;-91
2022/04/04 05:50:07;;;;;;;13.13;3.70;;;4.80;99.90;;;;;;5057569;28;20183;-89
2022/04/04 05:52:37;;;;;;;5.80;2.42;;;4.80;99.90;;;;;;5057569;28;20502;-89
2022/04/04 05:55:04;;;;;;;8.10;2.60;;;4.70;99.90;;;;;;5075361;28;20051;-89
2022/04/04 05:57:36;;;;;;;7.05;2.47;;;4.70;99.90;;;;;;5057400;28;20044;-90
2022/04/04 06:00:11;;;;;;;5.95;2.50;;;4.70;99.90;;;;;;5057191;28;20060;-91
2022/04/04 06:02:39;;;;;;;5.88;2.30;;;4.70;99.90;;;;;;5058577;28;20109;-88
2022/04/04 06:05:06;;;;;;;8.43;2.60;;;4.70;99.90;;;;;;5057756;28;20089;-89
2022/04/04 06:07:33;;;;;;;8.45;2.15;;;4.70;99.90;;;;;;5075365;28;20036;-91
2022/04/04 06:09:58;;;;;;;5.63;2.10;;;4.70;99.90;;;;;;5057684;28;20450;-91
2022/04/04 06:12:24;;;;;;;6.88;3.17;;;4.70;99.90;;;;;;5078591;28;20053;-91
2022/04/04 06:14:50;;;;;;;5.75;2.50;;;4.70;99.90;;;;;;5059633;28;20048;-90
2022/04/04 06:17:15;;;;;;;7.60;2.97;;;4.70;99.90;;;;;;5057976;28;20053;-93
2022/04/04 06:19:43;;;;;;;5.97;2.83;;;4.70;99.90;;;;;;5057583;28;20044;-85
2022/04/04 06:22:09;;;;;;;5.68;2.95;;;4.70;99.90;;;;;;5056721;28;20055;-88
2022/04/04 06:24:35;;;;;;;8.50;3.70;;;4.80;99.90;;;;;;5056807;28;20045;-85
2022/04/04 06:27:01;;;;;;;8.23;3.22;;;4.80;99.90;;;;;;5056943;28;20080;-84
2022/04/04 06:29:28;;;;;;;8.60;3.83;;;4.80;99.90;;;;;;5056717;28;20415;-88
2022/04/04 06:31:55;;;;;;;9.95;3.72;;;4.80;99.90;;;;;;5056908;28;20127;-81
2022/04/04 06:34:20;;;;;;;9.85;4.30;;;4.90;99.90;;;;;;5074179;28;20037;-87
2022/04/04 06:36:47;;;;;;;9.60;3.90;;;4.90;99.90;;;;;;5056517;28;20048;-85
2022/04/04 06:39:13;;;;;;;13.80;6.03;;;4.90;99.90;;;;;;5057601;28;20047;-86
2022/04/04 06:41:39;;;;;;;9.60;5.05;;;4.90;99.90;;;;;;5056603;28;20032;-86
2022/04/04 06:44:05;;;;;;;11.40;5.40;;;4.90;99.90;;;;;;5072033;28;20048;-86
2022/04/04 06:46:31;;;;;;;10.68;5.43;;;4.90;99.90;;;;;;5046026;28;20103;-86
2022/04/04 06:48:57;;;;;;;13.25;5.97;;;4.90;99.90;;;;;;5054051;28;20132;-86
2022/04/04 06:51:23;;;;;;;11.70;6.25;;;5.00;99.90;;;;;;5054792;28;20120;-89
2022/04/04 06:53:50;;;;;;;13.20;6.75;;;5.00;99.90;;;;;;5036185;28;20404;-87
2022/04/04 06:56:15;;;;;;;12.00;5.85;;;5.10;99.90;;;;;;5036145;28;20059;-86
2022/04/04 06:58:41;;;;;;;17.35;9.10;;;5.10;99.90;;;;;;5035939;28;20045;-86
2022/04/04 07:01:07;;;;;;;12.73;8.45;;;5.10;99.90;;;;;;5035804;28;20140;-87
2022/04/04 07:03:33;;;;;;;17.05;9.93;;;5.20;99.90;;;;;;5036021;28;20053;-88
2022/04/04 07:05:59;;;;;;;17.70;7.93;;;5.20;99.90;;;;;;5036087;28;20049;-88
2022/04/04 07:08:24;;;;;;;17.08;8.82;;;5.30;99.90;;;;;;5036165;28;20059;-86
2022/04/04 07:10:51;;;;;;;15.60;8.23;;;5.30;99.90;;;;;;5035807;28;20498;-82
2022/04/04 07:13:18;;;;;;;15.38;7.85;;;5.40;99.90;;;;;;5053914;28;20040;-85
2022/04/04 07:15:43;;;;;;;17.63;8.90;;;5.40;99.90;;;;;;5035924;28;20044;-85
2022/04/04 07:18:09;;;;;;;15.40;8.23;;;5.50;99.90;;;;;;5053855;28;20041;-85
2022/04/04 07:20:35;;;;;;;12.90;6.70;;;5.50;99.90;;;;;;5053498;28;20554;-86
2022/04/04 07:23:01;;;;;;;19.00;8.50;;;5.50;99.90;;;;;;5035871;28;20052;-86
2022/04/04 07:25:28;;;;;;;13.88;6.78;;;5.50;99.90;;;;;;5053678;28;20044;-84
2022/04/04 07:27:54;;;;;;;12.25;7.28;;;5.50;99.90;;;;;;5035768;28;20045;-85
2022/04/04 07:30:23;;;;;;;14.25;7.10;;;5.50;99.90;;;;;;5035440;28;20052;-84
2022/04/04 07:32:50;;;;;;;13.50;6.55;;;5.60;99.90;;;;;;5053241;28;20507;-83
2022/04/04 07:35:17;;;;;;;13.45;6.85;;;5.60;99.90;;;;;;5035781;28;20048;-86
2022/04/04 07:37:44;;;;;;;11.05;6.43;;;5.70;99.90;;;;;;5053240;28;20041;-87
2022/04/04 07:40:13;;;;;;;13.45;6.82;;;5.70;99.90;;;;;;5035386;28;20033;-86
2022/04/04 07:42:40;;;;;;;12.98;6.78;;;5.70;99.90;;;;;;5035319;28;20041;-85
2022/04/04 07:45:07;;;;;;;13.68;6.25;;;5.70;99.90;;;;;;5035432;28;20044;-84
2022/04/04 07:47:33;;;;;;;12.77;6.15;;;5.80;99.90;;;;;;5035573;28;20045;-89
2022/04/04 07:49:59;;;;;;;12.65;5.93;;;5.80;99.90;;;;;;5035659;28;20163;-85
2022/04/04 07:52:26;;;;;;;12.93;5.55;;;5.80;99.90;;;;;;5035249;28;20187;-85
2022/04/04 07:54:53;;;;;;;9.18;5.00;;;5.90;99.90;;;;;;5035160;28;20408;-85
2022/04/04 07:57:19;;;;;;;14.93;6.38;;;5.90;99.90;;;;;;5035157;28;20041;-85
2022/04/04 07:59:46;;;;;;;13.55;6.25;;;5.90;99.90;;;;;;5035079;28;20467;-86
2022/04/04 08:02:12;;;;;;;14.02;5.72;;;5.90;99.90;;;;;;5035493;28;20049;-88
2022/04/04 08:04:38;;;;;;;9.70;5.78;;;6.00;99.90;;;;;;5035404;28;20551;-86
2022/04/04 08:07:05;;;;;;;13.65;5.88;;;5.90;99.90;;;;;;5035075;28;20497;-86
2022/04/04 08:09:31;;;;;;;13.32;5.10;;;6.00;99.90;;;;;;5034979;28;20577;-86
2022/04/04 08:11:57;;;;;;;12.98;5.45;;;6.00;99.90;;;;;;5035046;28;20045;-84
2022/04/04 08:14:23;;;;;;;9.70;4.97;;;6.00;99.90;;;;;;5035193;28;20043;-84
2022/04/04 08:16:50;;;;;;;10.98;4.95;;;6.00;99.90;;;;;;5035269;28;20045;-84
2022/04/04 08:19:16;;;;;;;9.52;5.13;;;6.00;99.90;;;;;;5034960;28;20048;-84
2022/04/04 08:21:44;;;;;;;11.48;4.85;;;6.10;99.90;;;;;;5035024;28;20484;-89
2022/04/04 08:24:10;;;;;;;9.60;4.32;;;6.10;99.90;;;;;;5035205;28;20049;-86
2022/04/04 08:26:35;;;;;;;11.10;4.32;;;6.10;99.90;;;;;;5034931;28;20045;-85
2022/04/04 08:29:02;;;;;;;8.98;5.00;;;6.10;99.90;;;;;;5052621;28;20178;-87
2022/04/04 08:31:27;;;;;;;10.38;4.75;;;6.20;99.90;;;;;;5052736;28;20514;-86
2022/04/04 08:33:53;;;;;;;7.45;3.90;;;6.20;99.90;;;;;;5035077;28;20056;-83
2022/04/04 08:36:19;;;;;;;11.10;4.38;;;6.20;99.90;;;;;;5035197;28;20052;-87
2022/04/04 08:38:45;;;;;;;11.10;4.15;;;6.30;99.90;;;;;;5035062;28;20451;-85
2022/04/04 08:41:11;;;;;;;10.52;4.60;;;6.30;99.90;;;;;;5052725;28;20051;-90
2022/04/04 08:43:38;;;;;;;7.40;3.60;;;6.30;99.90;;;;;;5053020;28;20045;-88
2022/04/04 08:46:06;;;;;;;6.45;3.25;;;6.30;99.90;;;;;;5035038;28;20181;-84
2022/04/04 08:48:36;;;;;;;7.82;3.60;;;6.30;99.90;;;;;;5035010;28;20049;-87
2022/04/04 08:51:02;;;;;;;8.73;3.45;;;6.40;99.90;;;;;;5035439;28;20408;-91
2022/04/04 08:53:29;;;;;;;9.25;3.92;;;6.40;99.90;;;;;;5052746;28;20044;-93
2022/04/04 08:55:57;;;;;;;5.90;2.60;;;6.40;99.90;;;;;;5035375;28;20041;-92
2022/04/04 08:58:24;;;;;;;9.10;3.40;;;6.40;99.90;;;;;;5038211;28;20107;-94
2022/04/04 09:00:49;;;;;;;8.75;2.92;;;6.50;99.90;;;;;;5039802;28;20140;-94
2022/04/04 09:03:23;;;;;;;9.05;3.35;;;6.50;99.90;;;;;;5057041;28;20132;-87
2022/04/04 09:05:49;;;;;;;9.00;3.53;;;6.50;99.90;;;;;;5056381;28;20562;-84
2022/04/04 09:08:15;;;;;;;7.13;2.50;;;6.50;99.90;;;;;;5055983;28;20048;-84
2022/04/04 09:10:42;;;;;;;8.23;3.35;;;6.50;99.90;;;;;;5037740;28;20057;-85
2022/04/04 09:13:12;;;;;;;9.80;3.10;;;6.50;99.90;;;;;;5048392;28;20046;-84
2022/04/04 09:15:51;;;;;;;7.63;2.83;;;6.60;99.90;;;;;;5075646;28;20177;-84
2022/04/04 09:18:17;;;;;;;6.32;2.67;;;6.60;99.90;;;;;;5075933;28;20040;-84
2022/04/04 09:20:51;;;;;;;9.27;2.63;;;6.70;99.90;;;;;;5057943;28;20052;-84
2022/04/04 09:23:17;;;;;;;10.07;2.95;;;6.70;99.90;;;;;;5075662;28;20044;-88
2022/04/04 09:25:43;;;;;;;8.18;2.92;;;6.70;99.90;;;;;;5057461;28;20082;-84
2022/04/04 09:28:19;;;;;;;7.00;2.05;;;6.70;99.90;;;;;;5075753;28;20090;-84
2022/04/04 09:31:07;;;;;;;6.90;2.35;;;6.80;99.90;;;;;;5075638;28;20055;-83
2022/04/04 09:33:40;;;;;;;8.00;2.13;;;6.70;99.90;;;;;;5075763;28;20119;-90
2022/04/04 09:36:07;;;;;;;7.00;2.40;;;6.80;99.90;;;;;;5057400;28;20051;-84
2022/04/04 09:38:34;;;;;;;9.13;2.40;;;6.80;99.90;;;;;;5057453;28;20470;-85
2022/04/04 09:41:18;;;;;;;4.82;2.05;;;6.90;99.90;;;;;;5075586;28;20040;-87
2022/04/04 09:44:02;;;;;;;8.27;2.08;;;6.80;99.90;;;;;;5057388;28;20467;-88
2022/04/04 09:46:34;;;;;;;;;;;6.90;99.90;;;;;;5057761;28;20403;-86
2022/04/04 09:49:13;;;;;;;4.43;1.90;;;6.90;99.90;;;;;;5075343;28;19962;-87
2022/04/04 09:51:48;;;;;;;8.65;2.10;;;6.90;99.90;;;;;;5075361;28;20084;-87
2022/04/04 09:54:20;;;;;;;6.03;1.90;;;7.00;99.90;;;;;;5057239;28;20521;-92
2022/04/04 09:56:47;;;;;;;7.78;1.88;;;7.00;99.90;;;;;;5057125;28;20067;-90
2022/04/04 09:59:17;;;;;;;6.25;1.45;;;7.00;99.90;;;;;;5057691;28;20056;-93
2022/04/04 10:01:44;;;;;;;8.13;2.03;;;7.10;99.90;;;;;;5057197;28;20448;-89
2022/04/04 10:04:12;;;;;;;9.68;2.45;;;7.10;99.90;;;;;;5056755;28;20040;-86
2022/04/04 10:06:42;;;;;;;5.55;1.85;;;7.10;99.90;;;;;;5056593;28;20048;-89
2022/04/04 10:09:08;;;;;;;5.03;1.90;;;7.10;99.90;;;;;;5057254;28;20056;-86
2022/04/04 10:11:37;;;;;;;4.97;2.10;;;7.10;99.90;;;;;;5057362;28;20128;-91
2022/04/04 10:14:04;;;;;;;6.78;1.77;;;7.10;99.90;;;;;;5057074;28;20048;-87
2022/04/04 10:16:31;;;;;;;5.38;2.10;;;7.10;99.90;;;;;;5074759;28;20037;-88
2022/04/04 10:18:58;;;;;;;4.55;1.52;;;7.10;99.90;;;;;;5056738;28;20041;-90
2022/04/04 10:21:25;;;;;;;7.45;1.70;;;7.20;99.90;;;;;;5074686;28;20053;-89
2022/04/04 10:23:56;;;;;;;6.05;1.98;;;7.20;99.90;;;;;;5074765;28;20071;-86
2022/04/04 10:26:26;;;;;;;4.93;1.38;;;7.20;99.90;;;;;;5074416;28;20044;-84
2022/04/04 10:29:13;;;;;;;3.78;1.27;;;7.20;99.90;;;;;;5055689;28;20040;-86
2022/04/04 10:31:47;;;;;;;4.35;1.33;;;7.20;99.90;;;;;;5074372;28;20515;-87
2022/04/04 10:34:24;;;;;;;4.70;1.33;;;7.30;99.90;;;;;;5056300;28;20055;-85
2022/04/04 10:37:07;;;;;;;4.30;1.80;;;7.30;99.90;;;;;;5055853;28;20467;-88
2022/04/04 10:39:52;;;;;;;7.57;2.22;;;7.30;99.90;;;;;;5056320;28;20488;-84
2022/04/04 10:42:33;;;;;;;5.15;1.60;;;7.30;99.90;;;;;;5056342;28;20127;-89
2022/04/04 10:45:06;;;;;;;5.97;1.65;;;7.30;99.90;;;;;;5056444;28;20044;-91
2022/04/04 10:47:34;;;;;;;5.60;1.80;;;7.30;99.90;;;;;;5057164;28;20043;-91
2022/04/04 10:50:30;;;;;;;5.47;1.38;;;7.30;99.90;;;;;;5056151;28;20094;-86
2022/04/04 10:53:00;;;;;;;7.10;1.50;;;7.40;99.90;;;;;;5073861;28;20048;-88
2022/04/04 10:55:36;;;;;;;6.72;1.85;;;7.40;99.90;;;;;;5074019;28;20033;-92
2022/04/04 10:58:12;;;;;;;11.68;1.75;;;7.40;99.90;;;;;;5056309;28;20045;-91
2022/04/04 11:00:58;;;;;;;4.55;1.60;;;7.40;99.90;;;;;;5073565;28;20056;-85
2022/04/04 11:03:34;;;;;;;6.03;1.52;;;7.40;99.90;;;;;;5056074;28;20056;-89
2022/04/04 11:09:02;;;;;;;6.00;2.55;;;7.50;99.90;;;;;;5055619;28;20053;-93
2022/04/04 11:11:47;;;;;;;5.90;1.73;;;7.50;99.90;;;;;;5056020;28;20523;-89
2022/04/04 11:14:14;;;;;;;3.35;1.73;;;7.50;99.90;;;;;;5055854;28;20040;-91
2022/04/04 11:17:08;;;;;;;5.90;1.95;;;7.50;99.90;;;;;;5055916;28;20087;-90
2022/04/04 11:20:10;;;;;;;5.15;1.90;;;7.50;99.90;;;;;;5055616;28;20377;-91
2022/04/04 11:22:41;;;;;;;4.47;1.80;;;7.60;99.90;;;;;;5055801;28;20044;-92
2022/04/04 11:25:13;;;;;;;6.30;2.15;;;7.70;99.90;;;;;;5055401;28;20051;-83
2022/04/04 11:27:40;;;;;;;4.80;2.28;;;7.70;99.90;;;;;;5073594;28;20443;-85
2022/04/04 11:30:16;;;;;;;6.20;2.00;;;7.70;99.90;;;;;;5055151;28;20056;-82
2022/04/04 11:32:42;;;;;;;3.95;2.30;;;7.70;99.90;;;;;;5055623;28;20132;-83
2022/04/04 11:35:14;;;;;;;7.75;2.30;;;7.70;99.90;;;;;;5073746;28;20507;-83
2022/04/04 11:37:45;;;;;;;4.17;2.43;;;7.80;99.90;;;;;;5073591;28;20102;-83
2022/04/04 11:40:17;;;;;;;4.65;2.70;;;7.80;99.90;;;;;;5055218;28;20123;-84
2022/04/04 11:42:51;;;;;;;10.27;3.05;;;7.80;99.90;;;;;;5073581;28;20041;-82
2022/04/04 11:45:22;;;;;;;8.48;3.00;;;7.80;99.90;;;;;;5055199;28;20148;-84
2022/04/04 11:47:49;;;;;;;5.80;2.92;;;7.80;99.90;;;;;;5073181;28;20048;-85
2022/04/04 11:50:15;;;;;;;7.13;2.97;;;7.90;99.90;;;;;;5055078;28;20052;-82
2022/04/04 11:52:45;;;;;;;6.60;2.67;;;7.90;99.90;;;;;;5055042;28;20036;-84
2022/04/04 11:55:14;;;;;;;6.90;3.17;;;7.90;99.90;;;;;;5072722;28;20471;-87
2022/04/04 11:57:40;;;;;;;8.27;3.13;;;8.00;99.90;;;;;;5055383;28;20439;-88
2022/04/04 12:00:11;;;;;;;5.82;3.45;;;8.00;99.90;;;;;;5054789;28;20120;-86
2022/04/04 12:02:37;;;;;;;6.90;3.72;;;8.00;99.90;;;;;;5055116;28;20097;-83
2022/04/04 12:05:06;;;;;;;6.75;4.03;;;8.10;99.90;;;;;;5055203;28;20048;-82
2022/04/04 12:07:33;;;;;;;8.50;3.70;;;8.00;99.90;;;;;;5073012;28;20041;-86
2022/04/04 12:10:01;;;;;;;5.40;3.10;;;8.10;99.90;;;;;;5053339;28;20045;-89
2022/04/04 12:12:33;;;;;;;6.32;3.67;;;8.10;99.90;;;;;;5055033;28;20052;-83
2022/04/04 12:14:59;;;;;;;8.52;3.58;;;8.10;99.90;;;;;;5073029;28;20039;-84
2022/04/04 12:17:25;;;;;;;9.32;3.92;;;8.20;99.90;;;;;;5054920;28;20132;-83
2022/04/04 12:19:52;;;;;;;10.70;4.03;;;8.20;99.90;;;;;;5072840;28;20036;-83
2022/04/04 12:25:10;;;;;;;10.02;4.00;;;8.30;99.90;;;;;;5054887;28;20053;-82
2022/04/04 12:28:00;;;;;;;11.43;4.32;;;8.20;99.90;;;;;;5055101;28;20392;-85
2022/04/04 12:30:37;;;;;;;16.15;4.75;;;8.30;99.90;;;;;;5054729;28;20074;-84
2022/04/04 12:33:11;;;;;;;16.85;4.32;;;8.30;99.90;;;;;;5075714;28;20043;-83
2022/04/04 12:35:43;;;;;;;15.63;5.00;;;8.30;99.90;;;;;;5076640;28;20059;-89
2022/04/04 12:38:10;;;;;;;13.45;5.15;;;8.30;99.90;;;;;;5058750;28;20086;-89
2022/04/04 12:40:38;;;;;;;11.60;4.82;;;8.30;99.90;;;;;;5058933;28;20135;-89
2022/04/04 12:43:09;;;;;;;12.57;4.55;;;8.30;99.90;;;;;;5058855;28;20036;-88
2022/04/04 12:45:46;;;;;;;18.58;6.35;;;8.40;99.90;;;;;;5059120;28;20074;-90
2022/04/04 12:48:12;;;;;;;16.60;5.47;;;8.40;99.90;;;;;;5058789;28;20044;-92
2022/04/04 12:50:47;;;;;;;14.32;4.78;;;8.40;99.90;;;;;;5077086;28;20036;-91
2022/04/04 12:53:18;;;;;;;15.10;4.75;;;8.50;99.90;;;;;;5059014;28;20044;-92
2022/04/04 12:56:06;;;;;;;16.13;4.45;;;8.50;99.90;;;;;;5058905;28;20102;-92
2022/04/04 12:58:34;;;;;;;10.05;3.75;;;8.60;99.90;;;;;;5058722;28;20074;-90
2022/04/04 13:01:15;;;;;;;15.48;4.60;;;8.50;99.90;;;;;;5058534;28;20135;-92
2022/04/04 13:03:51;;;;;;;9.65;3.83;;;8.60;99.90;;;;;;5058986;28;20052;-91